Аэропорт: Элиста. Элиста

ICAO: URWI

METAR:
2020-06-02 08:00:00
URWI 020800Z 09007MPS CAVOK 25/11 Q1007 R09/190060 TEMPO 10009G14MPS
METAR:
2020-06-02 05:00:00
TAF URWI 020500Z 0206/0215 06003G10MPS 9999 SCT020 SCT030CB TEMPO 0206/0215 6000 -TSRA SCT016 SCT030CB